Time;durP1;ratioP1;P1;durP2;ratioP2;P2;SDS_P1;SDS_P2;PMS_P1;PMS_P2;Temp;Humidity;BMP_temperature;BMP_pressure;BME280_temperature;BME280_humidity;BME280_pressure;Samples;Min_cycle;Max_cycle;Signal;HPM_P1;HPM_P2
2023/05/31 00:02:04;;;;;;;6.25;2.75;;;15.80;99.90;;;16.07;100.00;101728.97;5168253;28;20506;-69
2023/05/31 00:04:36;;;;;;;5.50;3.10;;;15.80;99.90;;;16.01;100.00;101736.69;5184257;28;20106;-70
2023/05/31 00:07:09;;;;;;;7.30;3.17;;;15.70;99.90;;;15.92;100.00;101732.09;5185527;28;20046;-68
2023/05/31 00:09:41;;;;;;;8.05;2.85;;;15.70;99.90;;;15.88;100.00;101735.47;5185750;28;20052;-69
2023/05/31 00:12:13;;;;;;;7.10;3.05;;;15.60;99.90;;;15.83;100.00;101738.81;5185562;28;20052;-69
2023/05/31 00:14:45;;;;;;;6.63;3.17;;;15.50;99.90;;;15.76;100.00;101732.47;5185663;28;20512;-69
2023/05/31 00:17:19;;;;;;;6.28;2.90;;;15.40;99.90;;;15.70;100.00;101740.19;5185364;28;20042;-68
2023/05/31 00:19:51;;;;;;;8.52;3.08;;;15.40;99.90;;;15.63;100.00;101735.59;5185541;28;20633;-69
2023/05/31 00:22:23;;;;;;;5.32;2.70;;;15.30;99.90;;;15.59;100.00;101733.72;5185444;28;20394;-69
2023/05/31 00:24:56;;;;;;;7.03;2.90;;;15.30;99.90;;;15.54;100.00;101745.84;5185010;28;20046;-69
2023/05/31 00:27:28;;;;;;;5.95;3.00;;;15.20;99.90;;;15.49;100.00;101735.16;5187808;28;20100;-69
2023/05/31 00:30:00;;;;;;;6.40;2.75;;;15.20;99.90;;;15.44;100.00;101742.91;5205375;28;20057;-69
2023/05/31 00:32:33;;;;;;;7.03;2.95;;;15.10;99.90;;;15.37;100.00;101735.69;5187388;28;20045;-69
2023/05/31 00:35:06;;;;;;;6.70;2.78;;;15.10;99.90;;;15.34;100.00;101740.88;5205313;28;20132;-69
2023/05/31 00:37:38;;;;;;;6.82;3.05;;;15.10;99.90;;;15.31;100.00;101735.50;5187794;28;20041;-69
2023/05/31 00:40:12;;;;;;;5.32;2.88;;;15.00;99.90;;;15.27;100.00;101733.66;5187659;28;20539;-68
2023/05/31 00:42:44;;;;;;;7.50;2.75;;;15.00;99.90;;;15.25;100.00;101735.31;5205245;28;20502;-69
2023/05/31 00:45:18;;;;;;;8.32;3.30;;;15.00;99.90;;;15.19;100.00;101741.31;5187344;28;20045;-68
2023/05/31 00:47:52;;;;;;;5.95;2.70;;;14.90;99.90;;;15.16;100.00;101735.03;5205382;28;20745;-68
2023/05/31 00:50:24;;;;;;;5.80;2.90;;;14.90;99.90;;;15.11;100.00;101744.50;5187724;28;20125;-70
2023/05/31 00:52:58;;;;;;;6.80;3.15;;;14.80;99.90;;;15.09;100.00;101740.94;5187580;28;20138;-68
2023/05/31 00:55:31;;;;;;;7.22;3.00;;;14.80;99.90;;;15.04;100.00;101748.69;5187089;28;20054;-69
2023/05/31 00:58:03;;;;;;;6.30;3.03;;;14.70;99.90;;;15.03;100.00;101749.53;5187037;28;20060;-70
2023/05/31 01:00:37;;;;;;;6.50;3.38;;;14.70;99.90;;;15.00;100.00;101754.69;5187097;28;20140;-69
2023/05/31 01:03:12;;;;;;;7.55;3.35;;;14.70;99.90;;;14.93;100.00;101745.72;5187232;28;20429;-69
2023/05/31 01:05:45;;;;;;;6.63;2.85;;;14.60;99.90;;;14.89;100.00;101746.47;5204718;28;20359;-69
2023/05/31 01:08:17;;;;;;;7.90;3.17;;;14.60;99.90;;;14.85;100.00;101739.31;5204626;28;20045;-68
2023/05/31 01:10:53;;;;;;;6.80;3.05;;;14.60;99.90;;;14.81;100.00;101747.06;5187137;28;20147;-69
2023/05/31 01:13:35;;;;;;;7.55;3.15;;;14.50;99.90;;;14.76;100.00;101744.28;5187094;28;20050;-68
2023/05/31 01:16:13;;;;;;;6.70;3.17;;;14.50;99.90;;;14.73;100.00;101746.78;5204777;28;20045;-70
2023/05/31 01:18:54;;;;;;;6.68;3.03;;;14.40;99.90;;;14.69;100.00;101741.41;5186904;28;20128;-69
2023/05/31 01:21:38;;;;;;;7.50;3.42;;;14.40;99.90;;;14.66;100.00;101747.44;5186904;28;20487;-69
2023/05/31 01:24:26;;;;;;;6.40;3.10;;;14.40;99.90;;;14.62;100.00;101750.81;5186824;28;20056;-69
2023/05/31 01:27:03;;;;;;;6.40;2.78;;;14.40;99.90;;;14.58;100.00;101739.31;5187154;28;20646;-69
2023/05/31 01:29:36;;;;;;;;;;;14.30;99.90;;;14.54;100.00;101741.78;5204926;28;20486;-69
2023/05/31 01:32:13;;;;;;;6.43;2.95;;;14.30;99.90;;;14.50;100.00;101735.53;5202979;28;19925;-69
2023/05/31 01:34:46;;;;;;;7.20;3.05;;;14.20;99.90;;;14.46;100.00;101737.97;5204249;28;20080;-69
2023/05/31 01:37:18;;;;;;;8.38;3.60;;;14.20;99.90;;;14.40;100.00;101739.53;5203364;28;20049;-69
2023/05/31 01:39:52;;;;;;;7.43;3.50;;;14.20;99.90;;;14.37;100.00;101731.59;5186860;28;20053;-70
2023/05/31 01:42:27;;;;;;;7.25;3.33;;;14.10;99.90;;;14.33;100.00;101741.91;5186640;28;20537;-69
2023/05/31 01:44:59;;;;;;;6.47;3.17;;;14.10;99.90;;;14.28;100.00;101739.16;5202426;28;20072;-69
2023/05/31 01:47:32;;;;;;;7.05;3.42;;;14.00;99.90;;;14.25;100.00;101739.03;5186512;28;20077;-69
2023/05/31 01:50:06;;;;;;;6.30;3.00;;;14.00;99.90;;;14.21;100.00;101744.97;5186469;28;20057;-69
2023/05/31 01:52:39;;;;;;;7.22;3.60;;;13.90;99.90;;;14.19;100.00;101740.53;5186623;28;20095;-69
2023/05/31 01:55:11;;;;;;;6.97;3.33;;;13.90;99.90;;;14.14;100.00;101748.22;5186183;28;20055;-69
2023/05/31 01:57:48;;;;;;;7.38;3.60;;;13.90;99.90;;;14.11;100.00;101742.91;5203156;28;20038;-69
2023/05/31 02:00:22;;;;;;;5.88;2.65;;;13.80;99.90;;;14.08;100.00;101750.63;5186699;28;20060;-69
2023/05/31 02:02:55;;;;;;;9.07;3.55;;;13.80;99.90;;;14.04;100.00;101748.75;5186626;28;20149;-69
2023/05/31 02:05:27;;;;;;;7.57;3.40;;;13.80;99.90;;;14.03;100.00;101749.59;5186207;28;20050;-69
2023/05/31 02:08:00;;;;;;;7.93;3.17;;;13.80;99.90;;;14.02;100.00;101739.97;5203166;28;20060;-69
2023/05/31 02:10:32;;;;;;;5.88;3.30;;;13.80;99.90;;;13.98;100.00;101744.19;5186676;28;20072;-69
2023/05/31 02:13:06;;;;;;;5.45;2.90;;;13.70;99.90;;;13.95;100.00;101738.81;5186595;28;20141;-69
2023/05/31 02:15:41;;;;;;;7.18;3.25;;;13.70;99.90;;;13.92;100.00;101746.59;5203298;28;20070;-69
2023/05/31 02:18:16;;;;;;;6.35;3.08;;;13.70;99.90;;;13.88;100.00;101738.53;5186171;28;20133;-69
2023/05/31 02:20:50;;;;;;;7.95;3.00;;;13.60;99.90;;;13.85;100.00;101741.97;5186495;28;20049;-69
2023/05/31 02:23:24;;;;;;;6.78;2.80;;;13.60;99.90;;;13.81;100.00;101742.66;5186428;28;20531;-69
2023/05/31 02:25:57;;;;;;;6.97;3.35;;;13.60;99.90;;;13.78;100.00;101740.84;5203997;28;20498;-70
2023/05/31 02:28:31;;;;;;;7.82;3.13;;;13.60;99.90;;;13.76;100.00;101747.78;5186088;28;20042;-69
2023/05/31 02:31:04;;;;;;;6.43;2.60;;;13.50;99.90;;;13.72;100.00;101739.72;5204070;28;20417;-69
2023/05/31 02:33:36;;;;;;;6.93;3.25;;;13.50;99.90;;;13.69;100.00;101739.59;5186389;28;20073;-69
2023/05/31 02:36:09;;;;;;;6.85;2.90;;;13.50;99.90;;;13.68;100.00;101743.94;5186207;28;20060;-69
2023/05/31 02:38:43;;;;;;;6.07;3.17;;;13.40;99.90;;;13.63;100.00;101740.28;5203789;28;20049;-69
2023/05/31 02:41:18;;;;;;;8.60;3.10;;;13.40;99.90;;;13.61;100.00;101747.19;5203901;28;20044;-69
2023/05/31 02:43:51;;;;;;;7.28;3.22;;;13.40;99.90;;;13.60;100.00;101745.41;5186328;28;20143;-69
2023/05/31 02:46:23;;;;;;;6.80;3.08;;;13.40;99.90;;;13.59;100.00;101741.00;5203746;28;20045;-70
2023/05/31 02:48:56;;;;;;;6.70;3.00;;;13.30;99.90;;;13.56;100.00;101739.16;5202576;28;20051;-69
2023/05/31 02:51:28;;;;;;;6.80;3.42;;;13.30;99.90;;;13.54;100.00;101739.94;5203665;28;20045;-69
2023/05/31 02:54:06;;;;;;;7.90;3.40;;;13.30;99.90;;;13.50;100.00;101738.03;5203888;28;20378;-70
2023/05/31 02:56:40;;;;;;;7.57;3.10;;;13.30;99.90;;;13.49;100.00;101741.47;5187631;28;20065;-68
2023/05/31 02:59:33;;;;;;;6.55;3.05;;;13.30;99.90;;;13.46;100.00;101741.38;5207154;28;20030;-70
2023/05/31 03:02:10;;;;;;;7.30;3.28;;;13.20;99.90;;;13.42;100.00;101744.69;5189373;28;20045;-69
2023/05/31 03:04:53;;;;;;;6.20;2.72;;;13.20;99.90;;;13.41;100.00;101748.16;5189613;28;20049;-70
2023/05/31 03:07:27;;;;;;;6.80;3.28;;;13.20;99.90;;;13.39;100.00;101747.22;5189275;28;20069;-69
2023/05/31 03:09:59;;;;;;;7.97;3.50;;;13.20;99.90;;;13.35;100.00;101747.91;5207187;28;20422;-69
2023/05/31 03:12:32;;;;;;;7.28;2.85;;;13.10;99.90;;;13.33;100.00;101749.59;5189404;28;20140;-70
2023/05/31 03:15:08;;;;;;;6.60;3.10;;;13.10;99.90;;;13.30;100.00;101746.03;5189380;28;20127;-69
2023/05/31 03:17:41;;;;;;;6.38;2.88;;;13.10;99.90;;;13.28;100.00;101745.06;5189309;28;20520;-69
2023/05/31 03:20:14;;;;;;;7.20;3.10;;;13.10;99.90;;;13.25;100.00;101746.69;5206754;28;20053;-69
2023/05/31 03:22:46;;;;;;;7.47;3.05;;;13.00;99.90;;;13.24;100.00;101744.91;5207264;28;20057;-69
2023/05/31 03:25:18;;;;;;;5.75;3.00;;;13.00;99.90;;;13.23;100.00;101757.06;5188721;28;20049;-69
2023/05/31 03:27:50;;;;;;;6.75;2.78;;;13.00;99.90;;;13.21;100.00;101748.28;5207166;28;20129;-69
2023/05/31 03:30:24;;;;;;;6.40;2.97;;;13.00;99.90;;;13.19;100.00;101742.06;5205232;28;20073;-69
2023/05/31 03:33:03;;;;;;;7.45;3.45;;;13.00;99.90;;;13.18;100.00;101744.63;5188731;28;20422;-69
2023/05/31 03:35:36;;;;;;;6.22;2.80;;;13.00;99.90;;;13.18;100.00;101740.28;5205180;28;20052;-69
2023/05/31 03:38:10;;;;;;;7.47;2.92;;;12.90;99.90;;;13.19;100.00;101746.41;5189034;28;20042;-69
2023/05/31 03:40:42;;;;;;;6.85;3.03;;;13.00;99.90;;;13.17;100.00;101743.72;5205038;28;20057;-69
2023/05/31 03:43:14;;;;;;;7.88;3.47;;;13.00;99.90;;;13.16;100.00;101739.31;5188633;28;20152;-71
2023/05/31 03:45:49;;;;;;;7.82;2.85;;;12.90;99.90;;;13.17;100.00;101742.81;5188451;28;20514;-70
2023/05/31 03:48:21;;;;;;;7.88;2.70;;;12.90;99.90;;;13.16;100.00;101741.03;5188487;28;20140;-69
2023/05/31 03:50:53;;;;;;;7.38;2.83;;;13.00;99.90;;;13.12;100.00;101729.56;5188678;28;20092;-69
2023/05/31 03:53:26;;;;;;;7.03;3.20;;;12.90;99.90;;;13.13;100.00;101738.31;5188414;28;20053;-69
2023/05/31 03:55:58;;;;;;;8.45;3.30;;;12.90;99.90;;;13.12;100.00;101732.19;5188736;28;20556;-70
2023/05/31 03:58:30;;;;;;;7.38;3.10;;;12.90;99.90;;;13.12;100.00;101736.53;5188515;28;20145;-69
2023/05/31 04:01:04;;;;;;;6.05;2.90;;;12.90;99.90;;;13.15;100.00;101734.91;5204825;28;20140;-70
2023/05/31 04:03:37;;;;;;;7.15;3.05;;;12.90;99.90;;;13.15;100.00;101740.16;5188560;28;20505;-69
2023/05/31 04:06:10;;;;;;;7.53;3.20;;;12.90;99.90;;;13.17;100.00;101748.97;5188131;28;20049;-71
2023/05/31 04:08:42;;;;;;;6.57;3.00;;;12.90;99.90;;;13.17;100.00;101745.44;5187535;28;20564;-70
2023/05/31 04:11:15;;;;;;;6.85;2.97;;;13.00;99.90;;;13.14;100.00;101743.59;5188296;28;20143;-69
2023/05/31 04:13:47;;;;;;;6.13;2.83;;;12.90;99.90;;;13.17;100.00;101745.44;5188487;28;20079;-70
2023/05/31 04:16:21;;;;;;;7.35;2.92;;;13.00;99.90;;;13.19;100.00;101742.06;5188113;28;20132;-69
2023/05/31 04:18:54;;;;;;;7.07;3.38;;;13.00;99.90;;;13.26;100.00;101738.88;5188268;28;20077;-69
2023/05/31 04:21:28;;;;;;;6.95;2.78;;;13.00;99.90;;;13.32;100.00;101742.56;5187894;28;20045;-69
2023/05/31 04:24:01;;;;;;;8.70;4.00;;;13.10;99.90;;;13.38;100.00;101743.69;5188013;28;20526;-69
2023/05/31 04:26:34;;;;;;;8.95;3.45;;;13.10;99.90;;;13.42;100.00;101740.34;5188196;28;20465;-70
2023/05/31 04:29:09;;;;;;;9.10;3.30;;;13.20;99.90;;;13.44;100.00;101753.53;5221910;23;20049;-76
2023/05/31 04:31:43;;;;;;;7.05;3.20;;;13.30;99.90;;;13.46;100.00;101747.50;5119197;28;20066;-76
2023/05/31 04:34:18;;;;;;;8.85;4.05;;;13.20;99.90;;;13.50;100.00;101753.75;5111534;28;20054;-75
2023/05/31 04:36:53;;;;;;;8.07;3.28;;;13.30;99.90;;;13.56;100.00;101753.97;5124684;28;20058;-76
2023/05/31 04:39:28;;;;;;;8.13;3.20;;;13.40;99.90;;;13.63;100.00;101748.16;5118916;28;20071;-76
2023/05/31 04:42:05;;;;;;;8.10;3.10;;;13.40;99.90;;;13.70;100.00;101747.53;5091897;29;20085;-76
2023/05/31 04:44:39;;;;;;;7.53;3.50;;;13.50;99.90;;;13.79;100.00;101752.22;5090928;28;20098;-76
2023/05/31 04:47:15;;;;;;;6.63;3.20;;;13.60;99.90;;;13.91;100.00;101754.41;5091661;28;20686;-76
2023/05/31 04:49:48;;;;;;;9.38;4.18;;;13.60;99.90;;;14.13;100.00;101754.31;5099648;29;20066;-76
2023/05/31 04:52:22;;;;;;;11.05;4.57;;;13.80;99.90;;;14.42;100.00;101754.47;5107155;28;20039;-76
2023/05/31 04:54:55;;;;;;;8.98;4.32;;;14.10;99.90;;;14.79;100.00;101762.75;5106893;29;20051;-78
2023/05/31 04:57:30;;;;;;;8.40;3.90;;;14.40;99.90;;;15.16;100.00;101756.94;5095578;28;20059;-75
2023/05/31 05:00:08;;;;;;;11.63;4.68;;;14.70;99.90;;;15.55;100.00;101761.63;5074658;29;20098;-75
2023/05/31 05:02:41;;;;;;;10.57;4.80;;;15.10;99.90;;;15.98;100.00;101763.81;5105942;28;20098;-76
2023/05/31 05:05:16;;;;;;;10.30;4.78;;;15.40;99.90;;;16.32;100.00;101758.56;5121551;28;20082;-76
2023/05/31 05:07:48;;;;;;;12.38;4.75;;;15.80;99.90;;;16.68;100.00;101756.88;5114498;28;20142;-75
2023/05/31 05:10:21;;;;;;;12.05;4.80;;;16.10;99.90;;;17.11;100.00;101762.34;5122238;28;20038;-77
2023/05/31 05:12:54;;;;;;;9.55;4.00;;;16.50;99.90;;;17.39;100.00;101762.09;5124388;28;20133;-75
2023/05/31 05:15:27;;;;;;;12.18;4.50;;;16.80;99.90;;;17.60;98.26;101757.31;5106213;28;20407;-77
2023/05/31 05:18:01;;;;;;;9.38;4.43;;;17.00;99.90;;;17.84;96.98;101756.06;5098765;29;20578;-76
2023/05/31 05:20:34;;;;;;;10.05;4.13;;;17.20;99.90;;;18.04;95.44;101759.97;5121306;28;20103;-77
2023/05/31 05:23:07;;;;;;;8.02;3.60;;;17.40;99.90;;;18.24;92.63;101757.72;5114118;29;20043;-77
2023/05/31 05:25:42;;;;;;;11.98;4.07;;;17.60;99.90;;;18.44;91.69;101760.72;5123571;28;20039;-76
2023/05/31 05:28:15;;;;;;;7.78;3.38;;;17.80;99.90;;;18.64;91.92;101763.72;5122522;28;20464;-77
2023/05/31 05:30:48;;;;;;;10.23;4.03;;;17.90;99.90;;;18.83;90.19;101754.38;5090527;29;20057;-76
2023/05/31 05:33:22;;;;;;;8.43;3.45;;;18.10;99.90;;;19.10;87.90;101760.09;5121801;28;20134;-76
2023/05/31 05:35:55;;;;;;;7.72;3.35;;;18.40;99.90;;;19.38;86.12;101760.50;5075020;29;20090;-76
2023/05/31 05:38:28;;;;;;;5.55;2.60;;;18.60;99.90;;;19.56;84.51;101771.34;5090602;28;20162;-75
2023/05/31 05:41:00;;;;;;;5.53;3.03;;;18.80;99.90;;;19.81;83.28;101767.25;5090160;29;20522;-77
2023/05/31 05:43:33;;;;;;;6.22;2.83;;;19.00;99.80;;;20.10;81.22;101767.63;5123740;28;20047;-78
2023/05/31 05:46:17;;;;;;;7.43;3.05;;;19.30;99.20;;;20.27;79.75;101776.63;5092166;28;20415;-76
2023/05/31 05:48:52;;;;;;;6.97;3.15;;;19.50;98.10;;;20.49;79.00;101774.25;5121787;28;20404;-76
2023/05/31 05:51:28;;;;;;;8.25;3.10;;;19.70;97.60;;;20.76;78.20;101773.59;5121956;28;20050;-77
2023/05/31 05:54:05;;;;;;;5.45;2.83;;;20.00;97.20;;;20.89;76.55;101772.81;5075232;29;20054;-77
2023/05/31 05:56:37;;;;;;;9.95;3.65;;;20.10;96.10;;;21.03;75.29;101767.63;5119651;28;20047;-78
2023/05/31 05:59:14;;;;;;;6.05;2.85;;;20.30;95.30;;;21.12;75.24;101772.97;5105980;29;20075;-77
2023/05/31 06:02:05;;;;;;;9.38;3.03;;;20.40;95.00;;;21.45;74.36;101774.09;5116387;28;20048;-77
2023/05/31 06:04:41;;;;;;;10.10;3.17;;;20.70;94.80;;;21.58;74.06;101765.31;5089725;28;20102;-83
2023/05/31 06:07:14;;;;;;;9.75;2.92;;;20.80;94.10;;;21.66;73.73;101771.56;5105129;29;20565;-80
2023/05/31 06:09:47;;;;;;;5.53;2.90;;;20.90;93.90;;;21.73;73.37;101770.72;5089621;29;20043;-82
2023/05/31 06:12:19;;;;;;;6.50;2.97;;;20.90;93.40;;;21.79;73.51;101762.78;5090124;28;20048;-82
2023/05/31 06:14:52;;;;;;;4.65;2.65;;;21.00;93.40;;;21.81;73.55;101776.94;5105419;29;20445;-81
2023/05/31 06:17:25;;;;;;;7.85;2.80;;;21.10;93.20;;;21.87;72.21;101770.75;5122185;28;20043;-84
2023/05/31 06:19:59;;;;;;;6.22;2.55;;;21.10;92.50;;;22.04;72.64;101778.75;5105092;29;20531;-82
2023/05/31 06:22:34;;;;;;;9.73;3.40;;;21.30;92.60;;;22.20;71.77;101780.63;5090124;28;20051;-82
2023/05/31 06:25:07;;;;;;;5.28;2.20;;;21.40;92.10;;;22.35;71.25;101785.09;5096469;28;20058;-76
2023/05/31 06:27:41;;;;;;;4.40;2.40;;;21.50;91.70;;;22.52;71.26;101780.69;5090251;28;20055;-75
2023/05/31 06:30:15;;;;;;;10.07;2.85;;;21.70;91.60;;;22.62;71.23;101785.13;5105064;28;20043;-76
2023/05/31 06:32:52;;;;;;;6.70;2.38;;;21.80;91.40;;;22.62;70.71;101789.53;5093717;29;20475;-76
2023/05/31 06:35:31;;;;;;;4.32;2.15;;;21.90;91.00;;;22.50;70.13;101786.91;5087845;28;20137;-76
2023/05/31 06:38:03;;;;;;;7.45;2.58;;;21.80;90.50;;;22.36;70.21;101779.75;5109070;29;20415;-76
2023/05/31 06:40:38;;;;;;;6.97;2.75;;;21.70;90.30;;;22.14;70.54;101780.63;5113703;28;20048;-74
2023/05/31 06:43:11;;;;;;;5.78;2.58;;;21.50;90.30;;;22.01;70.98;101778.78;5124815;28;20054;-74
2023/05/31 06:46:02;;;;;;;4.90;2.40;;;21.30;90.40;;;21.92;72.09;101769.91;5126236;28;20066;-74
2023/05/31 06:49:07;;;;;;;3.53;2.05;;;21.30;90.90;;;21.84;73.23;101768.09;5085785;28;20047;-74
2023/05/31 06:52:16;;;;;;;4.22;2.10;;;21.20;91.60;;;21.83;74.14;101768.97;5015183;29;20062;-75
2023/05/31 06:55:15;;;;;;;;;;;21.10;92.00;;;21.83;74.15;101761.88;5102880;28;20590;-74
2023/05/31 06:57:48;;;;;;;5.07;2.20;;;21.10;92.10;;;21.89;73.93;101764.56;5100637;29;19938;-76
2023/05/31 07:00:21;;;;;;;3.78;2.00;;;21.20;92.00;;;21.97;73.62;101761.03;5097945;28;20047;-77
2023/05/31 07:02:54;;;;;;;3.45;1.73;;;21.20;92.00;;;22.03;73.19;101758.41;5123929;28;20047;-75
2023/05/31 07:05:26;;;;;;;3.83;2.10;;;21.30;91.80;;;22.13;73.25;101768.22;5092407;28;20114;-76
2023/05/31 07:08:01;;;;;;;4.85;2.20;;;21.30;91.80;;;22.25;72.77;101764.72;5100516;29;20103;-75
2023/05/31 07:10:33;;;;;;;5.55;2.17;;;21.40;91.50;;;22.38;72.41;101770.06;5105789;28;20055;-75
2023/05/31 07:13:08;;;;;;;5.60;2.25;;;21.60;91.40;;;22.58;71.45;101766.53;5073387;29;20369;-75
2023/05/31 07:15:40;;;;;;;3.63;2.10;;;21.70;91.00;;;22.71;71.22;101769.19;5098403;28;20055;-74
2023/05/31 07:18:13;;;;;;;5.47;2.30;;;21.80;90.80;;;22.85;71.00;101771.84;5120833;28;20051;-74
2023/05/31 07:20:47;;;;;;;3.38;2.10;;;21.90;90.70;;;22.96;70.61;101762.13;5123385;28;20090;-74
2023/05/31 07:23:21;;;;;;;7.28;2.00;;;22.10;90.50;;;23.07;70.25;101767.41;5092218;28;20055;-73
2023/05/31 07:25:53;;;;;;;3.67;1.95;;;22.20;90.20;;;23.15;69.28;101767.44;5126080;28;20645;-87
2023/05/31 07:28:26;;;;;;;4.25;2.00;;;22.20;89.30;;;23.20;68.52;101762.97;5109320;28;20142;-87
2023/05/31 07:30:59;;;;;;;3.63;1.77;;;22.30;88.30;;;23.35;68.72;101768.28;5098878;28;20057;-86
2023/05/31 07:33:32;;;;;;;3.30;2.10;;;22.40;88.70;;;23.50;67.95;101765.56;5129579;28;20061;-85
2023/05/31 07:36:05;;;;;;;4.05;2.08;;;22.50;87.90;;;23.60;67.31;101757.53;5120902;28;20062;-85
2023/05/31 07:38:40;;;;;;;4.78;2.28;;;22.60;87.00;;;23.70;67.79;101753.97;5142199;28;20419;-86
2023/05/31 07:41:15;;;;;;;4.50;2.03;;;22.70;87.30;;;23.86;67.90;101755.66;5109076;29;20054;-86
2023/05/31 07:43:47;;;;;;;6.57;2.28;;;22.90;87.50;;;24.04;68.14;101758.25;5131187;28;20660;-86
2023/05/31 07:46:20;;;;;;;4.70;2.03;;;23.00;87.50;;;24.16;67.02;101748.41;5125524;28;20078;-86
2023/05/31 07:48:53;;;;;;;3.22;1.67;;;23.10;86.50;;;24.30;67.49;101750.09;5125418;28;20397;-87
2023/05/31 07:51:26;;;;;;;4.47;1.98;;;23.20;86.80;;;24.51;65.39;101756.19;5096219;28;20411;-84
2023/05/31 07:54:00;;;;;;;3.35;1.90;;;23.40;84.60;;;24.78;64.34;101755.09;5106483;29;20536;-86
2023/05/31 07:56:32;;;;;;;3.47;1.98;;;23.60;83.30;;;25.02;62.24;101749.50;5113876;28;20042;-87
2023/05/31 07:59:06;;;;;;;3.97;1.70;;;23.80;81.10;;;25.24;60.62;101752.03;5109336;29;20062;-86
2023/05/31 08:01:39;;;;;;;4.25;1.80;;;24.00;78.90;;;25.62;59.43;101746.22;5117019;28;20119;-86
2023/05/31 08:04:13;;;;;;;4.47;1.60;;;24.20;77.70;;;25.99;58.81;101746.66;5104803;29;20054;-87
2023/05/31 08:06:46;;;;;;;5.65;1.80;;;24.50;76.80;;;26.42;57.24;101754.09;5130550;28;20051;-87
2023/05/31 08:09:20;;;;;;;2.78;1.50;;;24.80;75.30;;;26.95;57.75;101746.94;5100415;28;20167;-87
2023/05/31 08:11:53;;;;;;;5.15;1.60;;;25.10;75.50;;;27.51;56.78;101743.19;5116068;29;20042;-87
2023/05/31 08:14:26;;;;;;;4.05;1.55;;;25.50;75.30;;;28.06;55.23;101742.03;5108677;28;20059;-87
2023/05/31 08:16:58;;;;;;;5.07;1.77;;;25.80;73.50;;;28.58;55.41;101739.94;5132196;28;20396;-87
2023/05/31 08:19:31;;;;;;;3.67;1.80;;;26.10;73.90;;;29.17;54.46;101734.81;5088409;28;20044;-87
2023/05/31 08:22:04;;;;;;;3.08;1.45;;;26.40;73.40;;;29.86;50.71;101747.13;5095826;28;20055;-86
2023/05/31 08:24:38;;;;;;;2.75;1.70;;;26.80;70.10;;;30.62;49.43;101740.25;5107949;28;20051;-91
2023/05/31 08:27:11;;;;;;;2.70;1.40;;;27.20;68.70;;;31.37;47.28;101732.28;5139994;28;20250;-90
2023/05/31 08:29:43;;;;;;;1.88;1.45;;;27.60;66.80;;;32.22;45.59;101736.19;5117619;28;20054;-89
2023/05/31 08:32:16;;;;;;;2.70;1.23;;;28.00;65.00;;;33.17;42.72;101741.13;5125898;28;20047;-86
2023/05/31 08:34:48;;;;;;;2.42;1.50;;;28.50;61.80;;;33.90;40.13;101731.44;5090251;29;20051;-86
2023/05/31 08:37:21;;;;;;;2.97;1.30;;;29.10;59.00;;;34.84;37.83;101736.72;5076613;29;20208;-88
2023/05/31 08:39:55;;;;;;;2.95;1.40;;;29.90;56.30;;;35.73;37.18;101735.53;5123887;28;20039;-84
2023/05/31 08:42:34;;;;;;;3.10;1.52;;;30.80;54.90;;;36.26;34.46;101741.63;5090790;28;20059;-83
2023/05/31 08:45:10;;;;;;;3.60;1.40;;;31.50;51.20;;;36.73;33.93;101725.25;5091250;29;20061;-84
2023/05/31 08:47:45;;;;;;;2.65;1.30;;;32.10;50.20;;;36.83;32.80;101731.84;5106551;28;20416;-84
2023/05/31 08:50:19;;;;;;;2.85;1.25;;;32.40;48.50;;;37.45;33.51;101724.41;5105572;29;20423;-84
2023/05/31 08:52:52;;;;;;;3.63;1.50;;;33.00;49.10;;;38.16;33.06;101722.56;5122268;28;20065;-83
2023/05/31 08:55:27;;;;;;;1.92;1.45;;;33.60;48.70;;;38.73;31.42;101720.50;5113956;28;20051;-84
2023/05/31 08:58:00;;;;;;;3.05;1.33;;;34.10;47.10;;;38.85;31.06;101724.22;5104645;28;20130;-91
2023/05/31 09:00:34;;;;;;;3.13;1.38;;;34.30;46.30;;;38.33;31.11;101725.03;5101520;28;20039;-87
2023/05/31 09:03:07;;;;;;;;;;;34.00;45.80;;;37.57;31.56;101725.47;5133914;28;20043;-91
2023/05/31 09:05:39;;;;;;;3.03;1.40;;;33.70;45.60;;;37.13;32.27;101722.81;5109927;28;19923;-88
2023/05/31 09:08:13;;;;;;;2.53;1.30;;;33.50;46.10;;;36.34;31.57;101723.91;5100019;29;20721;-86
2023/05/31 09:10:47;;;;;;;3.03;1.35;;;32.80;45.00;;;36.31;31.96;101715.06;5109087;28;20042;-86
2023/05/31 09:13:21;;;;;;;2.75;1.25;;;32.70;45.50;;;36.61;31.39;101702.41;5121617;28;20055;-87
2023/05/31 09:15:54;;;;;;;2.28;1.30;;;32.90;45.20;;;36.02;31.60;101716.78;5125077;28;20126;-86
2023/05/31 09:18:30;;;;;;;3.58;1.38;;;32.60;44.70;;;35.28;32.18;101710.00;5109706;28;20074;-85
2023/05/31 09:21:09;;;;;;;3.35;1.50;;;32.30;45.00;;;34.48;32.94;101717.81;5145384;28;20047;-88
2023/05/31 09:23:53;;;;;;;3.55;1.30;;;31.80;45.30;;;33.98;32.39;101713.09;5135149;28;20050;-88
2023/05/31 09:26:28;;;;;;;3.38;1.52;;;31.50;44.80;;;33.40;32.92;101705.00;5123870;28;20133;-83
2023/05/31 09:29:01;;;;;;;3.60;1.58;;;31.30;45.00;;;32.37;34.22;101700.50;5086921;29;20058;-83
2023/05/31 09:31:34;;;;;;;3.65;1.30;;;30.70;45.30;;;31.50;35.72;101695.88;5104647;28;20059;-83
2023/05/31 09:34:26;;;;;;;4.25;1.50;;;30.10;46.30;;;30.59;36.63;101694.63;5132982;28;20130;-81
2023/05/31 09:36:59;;;;;;;3.05;1.30;;;29.60;46.80;;;29.88;38.12;101686.16;5092053;28;20078;-78
2023/05/31 09:39:31;;;;;;;;;;;29.10;47.50;;;29.47;38.33;101684.69;5119156;28;20039;-80
2023/05/31 09:42:14;;;;;;;5.28;1.88;;;28.70;47.70;;;29.24;40.26;101676.47;5082838;29;19930;-81
2023/05/31 09:44:49;;;;;;;3.17;1.35;;;28.50;49.30;;;29.11;39.90;101673.25;5119692;28;20624;-85
2023/05/31 09:47:26;;;;;;;2.45;1.35;;;28.30;49.00;;;28.86;40.29;101665.84;5103691;29;20515;-80
2023/05/31 09:49:58;;;;;;;3.35;1.30;;;28.10;49.20;;;28.89;40.24;101671.13;5106780;29;20132;-83
2023/05/31 09:52:31;;;;;;;3.33;1.35;;;28.10;49.40;;;28.81;41.04;101662.38;5102730;28;20142;-76
2023/05/31 09:55:08;;;;;;;2.75;1.27;;;28.00;49.90;;;28.91;41.27;101653.22;5105675;29;20098;-78
2023/05/31 09:57:45;;;;;;;3.35;1.38;;;28.00;50.10;;;28.77;40.75;101654.50;5105518;28;20154;-77
2023/05/31 10:00:19;;;;;;;2.40;1.13;;;27.90;49.60;;;28.74;40.90;101643.81;5105968;29;20039;-74
2023/05/31 10:02:54;;;;;;;2.50;1.20;;;27.90;49.80;;;28.55;40.98;101643.44;5123468;28;20145;-75
2023/05/31 10:05:27;;;;;;;2.97;1.45;;;27.80;49.90;;;28.47;42.00;101643.66;5123263;28;20133;-75
2023/05/31 10:07:59;;;;;;;1.98;1.30;;;27.70;50.80;;;28.26;41.56;101645.06;5110110;29;20472;-75
2023/05/31 10:10:31;;;;;;;2.30;1.30;;;27.50;50.20;;;28.25;41.52;101637.94;5109618;28;20062;-76
2023/05/31 10:13:24;;;;;;;4.38;1.60;;;27.50;50.20;;;28.29;40.85;101628.88;5078465;29;20106;-74
2023/05/31 10:15:58;;;;;;;3.20;1.40;;;27.50;49.80;;;28.37;41.28;101626.94;5106986;28;20478;-76
2023/05/31 10:18:34;;;;;;;3.90;1.40;;;27.50;50.10;;;28.47;41.47;101629.38;5125599;28;20075;-74
2023/05/31 10:21:12;;;;;;;2.83;1.30;;;27.60;50.40;;;28.32;40.55;101631.53;5111364;29;20420;-75
2023/05/31 10:23:47;;;;;;;4.22;1.60;;;27.50;49.40;;;28.27;41.34;101617.31;5111017;28;20503;-74
2023/05/31 10:26:20;;;;;;;3.72;1.40;;;27.40;49.90;;;28.26;41.58;101630.78;5110061;29;20047;-75
2023/05/31 10:28:58;;;;;;;3.03;1.30;;;27.40;50.30;;;28.32;40.76;101610.06;5123134;28;20048;-75
2023/05/31 10:31:35;;;;;;;2.95;1.42;;;27.40;49.70;;;28.50;40.82;101614.09;5180478;23;20384;-60
2023/05/31 10:34:20;;;;;;;2.95;1.30;;;27.60;49.70;;;28.43;40.43;101616.94;5182155;28;20500;-59
2023/05/31 10:36:52;;;;;;;2.03;1.10;;;27.60;49.40;;;28.50;41.13;101602.47;5165010;28;20038;-63
2023/05/31 10:39:34;;;;;;;1.88;1.15;;;27.60;49.70;;;28.70;41.67;101605.50;5164803;28;20039;-60
2023/05/31 10:42:22;;;;;;;2.30;1.00;;;27.80;50.70;;;28.81;41.16;101594.44;5165201;28;20046;-59